Time;durP1;ratioP1;P1;durP2;ratioP2;P2;SDS_P1;SDS_P2;PMS_P1;PMS_P2;Temp;Humidity;BMP_temperature;BMP_pressure;BME280_temperature;BME280_humidity;BME280_pressure;Samples;Min_cycle;Max_cycle;Signal;HPM_P1;HPM_P2
2022/10/14 00:01:20;;;;;;;29.45;21.33;;;12.70;99.90;;;11.99;100.00;96547.19;6204469;23;20032;-66
2022/10/14 00:03:49;;;;;;;33.95;24.25;;;12.70;99.90;;;11.92;100.00;96544.97;6205828;23;20451;-66
2022/10/14 00:06:19;;;;;;;29.45;22.63;;;12.70;99.90;;;12.00;100.00;96538.47;6206235;23;20354;-66
2022/10/14 00:08:47;;;;;;;27.92;20.02;;;12.70;99.90;;;12.01;100.00;96537.53;6206193;23;20035;-66
2022/10/14 00:11:19;;;;;;;28.70;21.55;;;12.70;99.90;;;12.00;100.00;96536.72;6206462;23;20097;-66
2022/10/14 00:13:47;;;;;;;35.00;23.20;;;12.80;99.90;;;11.91;100.00;96532.09;6207973;23;20027;-66
2022/10/14 00:16:24;;;;;;;35.30;24.33;;;12.80;99.90;;;11.98;100.00;96538.56;6204326;23;20021;-66
2022/10/14 00:18:51;;;;;;;37.65;24.73;;;12.70;99.90;;;11.83;100.00;96542.13;6228023;23;20031;-66
2022/10/14 00:21:19;;;;;;;31.20;23.05;;;12.70;99.90;;;11.91;100.00;96534.69;6204200;23;20031;-65
2022/10/14 00:23:46;;;;;;;29.48;20.48;;;12.70;99.90;;;11.95;100.00;96536.19;6205956;23;20487;-64
2022/10/14 00:26:29;;;;;;;31.85;22.10;;;12.70;99.90;;;12.07;100.00;96534.53;6207012;23;20020;-66
2022/10/14 00:28:58;;;;;;;39.08;25.40;;;12.70;99.90;;;11.87;100.00;96533.19;6205917;23;20020;-65
2022/10/14 00:31:26;;;;;;;32.20;22.92;;;12.70;99.90;;;12.01;100.00;96534.94;6204600;23;20340;-65
2022/10/14 00:33:53;;;;;;;30.38;22.02;;;12.70;99.90;;;11.97;100.00;96530.84;6206919;23;20360;-65
2022/10/14 00:36:23;;;;;;;29.02;21.55;;;12.70;99.90;;;11.93;100.00;96540.63;6204889;23;20032;-65
2022/10/14 00:38:52;;;;;;;37.22;23.90;;;12.70;99.90;;;11.88;100.00;96534.88;6206695;23;20024;-65
2022/10/14 00:41:27;;;;;;;27.92;21.42;;;12.70;99.90;;;11.93;100.00;96527.63;6204618;23;20028;-66
2022/10/14 00:44:09;;;;;;;25.38;20.70;;;12.70;99.90;;;11.99;100.00;96531.59;6206668;23;20031;-66
2022/10/14 00:46:39;;;;;;;24.55;20.50;;;12.70;99.90;;;11.94;100.00;96526.69;6206883;23;20028;-65
2022/10/14 00:49:31;;;;;;;29.40;21.30;;;12.70;99.90;;;12.06;100.00;96515.47;6206662;23;20312;-65
2022/10/14 00:52:09;;;;;;;34.65;22.95;;;12.60;99.90;;;11.97;100.00;96510.88;6204596;23;20021;-66
2022/10/14 00:54:44;;;;;;;34.70;23.15;;;12.60;99.90;;;11.96;100.00;96503.19;6206307;23;20345;-66
2022/10/14 00:57:13;;;;;;;29.92;21.92;;;12.60;99.90;;;12.01;100.00;96508.94;6204226;23;20344;-66
2022/10/14 00:59:40;;;;;;;31.92;22.15;;;12.60;99.90;;;11.96;100.00;96511.81;6206122;23;20025;-66
2022/10/14 01:02:07;;;;;;;33.28;23.67;;;12.60;99.90;;;11.93;100.00;96507.66;6206821;23;20024;-66
2022/10/14 01:04:38;;;;;;;36.25;25.83;;;12.70;99.90;;;11.91;100.00;96514.72;6206999;23;20382;-66
2022/10/14 01:07:28;;;;;;;38.35;25.13;;;12.70;99.90;;;11.96;100.00;96511.81;6204756;23;20024;-65
2022/10/14 01:10:19;;;;;;;36.75;23.35;;;12.70;99.90;;;11.90;100.00;96509.63;6230095;23;20099;-65
2022/10/14 01:13:13;;;;;;;39.28;25.10;;;12.70;99.90;;;11.87;100.00;96521.06;6206409;23;20021;-65
2022/10/14 01:15:54;;;;;;;42.17;26.95;;;12.60;99.90;;;11.91;100.00;96511.31;6207374;23;20103;-65
2022/10/14 01:18:42;;;;;;;32.60;24.60;;;12.60;99.90;;;11.93;100.00;96512.03;6204994;23;20024;-65
2022/10/14 01:21:33;;;;;;;39.75;28.25;;;12.60;99.90;;;11.92;100.00;96513.78;6207168;23;20106;-65
2022/10/14 01:24:19;;;;;;;37.72;25.45;;;12.60;99.90;;;11.88;100.00;96524.47;6206145;23;20071;-65
2022/10/14 01:27:32;;;;;;;40.88;25.02;;;12.60;99.90;;;11.90;100.00;96522.63;6205778;23;20021;-66
2022/10/14 01:30:08;;;;;;;34.70;23.80;;;12.60;99.90;;;11.93;100.00;96522.44;6207253;23;20028;-66
2022/10/14 01:32:47;;;;;;;37.10;25.33;;;12.60;99.90;;;11.86;100.00;96521.09;6204192;23;20025;-65
2022/10/14 01:35:22;;;;;;;34.75;25.23;;;12.60;99.90;;;11.91;100.00;96517.31;6205188;23;20017;-64
2022/10/14 01:38:01;;;;;;;44.90;26.83;;;12.60;99.90;;;11.84;100.00;96518.63;6204810;23;20028;-65
2022/10/14 01:40:55;;;;;;;35.60;25.23;;;12.60;99.90;;;11.86;100.00;96518.50;6203349;23;20078;-65
2022/10/14 01:43:26;;;;;;;35.83;23.65;;;12.60;99.90;;;11.95;100.00;96509.31;6206167;23;20470;-66
2022/10/14 01:45:55;;;;;;;43.35;26.95;;;12.60;99.90;;;11.95;100.00;96493.72;6206573;23;20393;-66
2022/10/14 01:48:28;;;;;;;36.88;25.02;;;12.70;99.90;;;11.95;100.00;96498.91;6204470;23;20036;-65
2022/10/14 01:50:59;;;;;;;30.85;22.20;;;12.70;99.90;;;12.00;100.00;96466.50;6204540;23;20128;-66
2022/10/14 01:53:36;;;;;;;49.67;28.05;;;12.70;99.90;;;11.99;100.00;96466.56;6204107;23;20028;-65
2022/10/14 01:56:04;;;;;;;39.90;26.10;;;12.70;99.90;;;11.94;100.00;96464.28;6204058;23;20047;-65
2022/10/14 01:58:33;;;;;;;40.58;25.50;;;12.70;99.90;;;11.96;100.00;96459.00;6207278;23;20024;-65
2022/10/14 02:01:03;;;;;;;38.95;23.95;;;12.70;99.90;;;12.01;100.00;96459.50;6203983;23;20040;-65
2022/10/14 02:03:43;;;;;;;32.25;23.13;;;12.70;99.90;;;11.93;100.00;96460.84;6206195;23;20024;-65
2022/10/14 02:06:31;;;;;;;46.83;28.83;;;12.70;99.90;;;11.84;100.00;96466.63;6205116;23;20029;-66
2022/10/14 02:09:22;;;;;;;39.75;25.80;;;12.70;99.90;;;11.95;100.00;96460.75;6209226;23;20039;-65
2022/10/14 02:12:02;;;;;;;46.05;26.33;;;12.70;99.90;;;12.00;100.00;96460.47;6207901;23;20024;-65
2022/10/14 02:15:10;;;;;;;46.83;28.23;;;12.70;99.90;;;11.84;100.00;96466.63;6207951;23;20306;-66
2022/10/14 02:18:11;;;;;;;43.25;26.73;;;12.70;99.90;;;11.93;100.00;96454.81;6208466;23;20583;-66
2022/10/14 02:20:59;;;;;;;37.88;24.13;;;12.70;99.90;;;12.04;100.00;96444.56;6209159;23;20028;-65
2022/10/14 02:23:32;;;;;;;35.65;24.40;;;12.70;99.90;;;11.97;100.00;96445.03;6208283;23;20024;-66
2022/10/14 02:26:00;;;;;;;39.33;25.77;;;12.80;99.90;;;11.99;100.00;96430.16;6207728;23;20501;-65
2022/10/14 02:28:30;;;;;;;37.50;22.77;;;12.80;99.90;;;12.02;100.00;96427.34;6183420;23;20134;-66
2022/10/14 02:31:02;;;;;;;41.60;27.00;;;12.80;99.90;;;12.01;100.00;96415.31;6209717;23;20460;-66
2022/10/14 02:33:38;;;;;;;45.15;26.02;;;12.80;99.90;;;12.00;100.00;96413.66;6208312;23;20313;-66
2022/10/14 02:36:08;;;;;;;44.40;26.70;;;12.80;99.90;;;12.03;100.00;96411.66;6206621;23;20464;-65
2022/10/14 02:38:37;;;;;;;42.47;26.02;;;12.70;99.90;;;12.07;100.00;96402.72;6209716;23;20108;-66
2022/10/14 02:41:07;;;;;;;43.85;26.85;;;12.70;99.90;;;12.02;100.00;96397.00;6207060;23;20023;-66
2022/10/14 02:43:34;;;;;;;47.78;28.05;;;12.80;99.90;;;12.02;100.00;96402.19;6207582;23;20099;-65
2022/10/14 02:46:03;;;;;;;37.42;25.33;;;12.70;99.90;;;12.02;100.00;96389.19;6209493;23;20463;-65
2022/10/14 02:48:30;;;;;;;39.53;23.90;;;12.70;99.90;;;12.09;100.00;96392.22;6207636;23;20703;-65
2022/10/14 02:50:57;;;;;;;45.78;27.15;;;12.70;99.90;;;12.02;100.00;96384.00;6209501;23;20120;-65
2022/10/14 02:53:24;;;;;;;35.55;22.83;;;12.80;99.90;;;12.08;100.00;96380.97;6209597;23;20032;-66
2022/10/14 02:55:51;;;;;;;43.53;26.52;;;12.80;99.90;;;12.10;100.00;96378.25;6209168;23;20040;-65
2022/10/14 02:58:18;;;;;;;36.47;23.73;;;12.80;99.90;;;12.06;100.00;96382.84;6209605;23;20031;-66
2022/10/14 03:00:48;;;;;;;36.88;24.90;;;12.80;99.90;;;12.10;100.00;96383.47;6209616;23;20457;-66
2022/10/14 03:03:15;;;;;;;44.60;24.45;;;12.80;99.90;;;12.06;100.00;96390.63;6208455;23;20031;-66
2022/10/14 03:05:42;;;;;;;39.13;25.85;;;12.80;99.90;;;12.09;100.00;96393.03;6209565;23;20025;-66
2022/10/14 03:08:09;;;;;;;37.00;24.88;;;12.80;99.90;;;12.16;100.00;96385.66;6209420;23;20029;-65
2022/10/14 03:10:36;;;;;;;36.75;25.00;;;12.80;99.90;;;12.11;100.00;96374.72;6206691;23;20039;-66
2022/10/14 03:13:03;;;;;;;41.28;25.83;;;12.80;99.90;;;12.14;100.00;96377.97;6209123;23;20040;-66
2022/10/14 03:15:30;;;;;;;38.47;25.02;;;12.90;99.90;;;12.05;100.00;96372.56;6209284;23;20461;-66
2022/10/14 03:17:57;;;;;;;38.15;25.55;;;12.90;99.90;;;12.16;100.00;96372.66;6207990;23;20020;-65
2022/10/14 03:20:24;;;;;;;36.85;23.10;;;12.90;99.90;;;12.25;100.00;96361.63;6208020;23;20021;-66
2022/10/14 03:22:51;;;;;;;39.05;25.35;;;12.90;99.90;;;12.13;100.00;96352.91;6208871;23;20031;-66
2022/10/14 03:25:18;;;;;;;32.10;22.15;;;12.90;99.90;;;12.10;100.00;96360.88;6206906;23;20477;-66
2022/10/14 03:27:45;;;;;;;42.83;25.25;;;12.90;99.90;;;12.07;100.00;96361.09;6208261;23;20028;-66
2022/10/14 03:30:12;;;;;;;40.42;21.92;;;12.90;99.90;;;12.19;100.00;96350.81;6207536;23;20095;-66
2022/10/14 03:32:38;;;;;;;32.35;21.70;;;12.90;99.90;;;12.17;100.00;96343.09;6206528;23;20020;-66
2022/10/14 03:35:06;;;;;;;35.95;22.85;;;12.90;99.90;;;12.17;100.00;96355.28;6207506;23;20027;-66
2022/10/14 03:37:33;;;;;;;39.17;25.75;;;12.90;99.90;;;12.12;100.00;96342.59;6208110;23;20017;-66
2022/10/14 03:40:00;;;;;;;33.58;21.98;;;12.90;99.90;;;12.19;100.00;96296.16;6207565;23;20017;-66
2022/10/14 03:42:27;;;;;;;34.35;22.95;;;12.90;99.90;;;12.20;100.00;96284.81;6207112;23;20413;-66
2022/10/14 03:44:54;;;;;;;33.75;23.25;;;12.90;99.90;;;12.24;100.00;96273.25;6207519;23;20024;-66
2022/10/14 03:47:22;;;;;;;33.17;23.10;;;12.90;99.90;;;12.22;100.00;96272.53;6207463;23;20032;-65
2022/10/14 03:49:49;;;;;;;31.48;22.73;;;12.90;99.90;;;12.23;100.00;96272.44;6205798;23;20039;-66
2022/10/14 03:52:15;;;;;;;35.90;23.30;;;12.90;99.90;;;12.22;100.00;96278.56;6207510;23;20021;-66
2022/10/14 03:54:42;;;;;;;30.85;21.23;;;12.90;99.90;;;12.25;100.00;96275.78;6207880;23;20027;-66
2022/10/14 03:57:09;;;;;;;38.22;23.38;;;12.90;99.90;;;12.14;100.00;96271.31;6207910;23;20043;-66
2022/10/14 03:59:36;;;;;;;35.90;23.88;;;12.90;99.90;;;12.10;100.00;96267.25;6207479;23;20035;-66
2022/10/14 04:02:03;;;;;;;33.13;22.50;;;13.00;99.90;;;12.18;100.00;96253.72;6207816;23;20024;-66
2022/10/14 04:04:30;;;;;;;31.98;22.02;;;12.90;99.90;;;12.25;100.00;96254.94;6207186;23;20059;-66
2022/10/14 04:06:57;;;;;;;37.60;22.27;;;12.90;99.90;;;12.22;100.00;96257.75;6208038;23;20570;-65
2022/10/14 04:09:26;;;;;;;30.98;20.27;;;12.90;99.90;;;12.11;100.00;96255.94;6207885;23;20047;-65
2022/10/14 04:11:54;;;;;;;36.38;21.80;;;12.90;99.90;;;12.16;100.00;96255.59;6207275;23;20021;-66
2022/10/14 04:14:25;;;;;;;30.35;20.73;;;12.90;99.90;;;12.14;100.00;96254.88;6207409;23;20021;-65
2022/10/14 04:16:52;;;;;;;28.65;19.23;;;12.90;99.90;;;12.21;100.00;96250.06;6207875;23;20020;-66
2022/10/14 04:19:19;;;;;;;25.27;18.35;;;12.90;99.90;;;12.15;100.00;96235.72;6206958;23;20039;-66
2022/10/14 04:21:46;;;;;;;29.67;19.05;;;12.90;99.90;;;12.13;100.00;96235.00;6208160;23;20040;-66
2022/10/14 04:24:14;;;;;;;25.48;18.02;;;12.80;99.90;;;12.10;100.00;96232.63;6207377;23;20387;-66
2022/10/14 04:26:41;;;;;;;27.13;18.75;;;12.80;99.90;;;12.06;100.00;96236.34;6207164;23;20756;-65
2022/10/14 04:29:08;;;;;;;31.50;16.50;;;12.80;99.90;;;12.10;100.00;96235.22;6207669;23;20138;-66
2022/10/14 04:31:34;;;;;;;25.92;16.30;;;12.80;99.90;;;12.12;100.00;96199.53;6206346;23;20028;-65
2022/10/14 04:34:01;;;;;;;25.58;15.82;;;12.80;99.90;;;12.05;100.00;96199.13;6205922;23;20025;-66
2022/10/14 04:36:28;;;;;;;21.15;15.45;;;12.80;99.90;;;12.09;100.00;96169.38;6206597;23;20306;-66
2022/10/14 04:38:55;;;;;;;20.60;15.45;;;12.80;99.90;;;12.02;100.00;96172.50;6207308;23;20017;-66
2022/10/14 04:41:22;;;;;;;24.70;14.15;;;12.80;99.90;;;12.10;100.00;96167.59;6207409;23;20020;-66
2022/10/14 04:43:49;;;;;;;24.52;14.82;;;12.80;99.90;;;12.09;100.00;96171.16;6207813;23;20029;-67
2022/10/14 04:46:16;;;;;;;24.95;14.55;;;12.80;99.90;;;11.96;100.00;96171.16;6206139;23;20135;-66
2022/10/14 04:48:43;;;;;;;18.92;13.15;;;12.80;99.90;;;12.12;100.00;96163.13;6207734;23;20025;-66
2022/10/14 04:51:10;;;;;;;18.60;13.73;;;12.80;99.90;;;12.06;100.00;96163.53;6207279;23;20029;-66
2022/10/14 04:53:37;;;;;;;19.63;12.82;;;12.80;99.90;;;12.09;100.00;96160.75;6205348;23;20420;-65
2022/10/14 04:56:04;;;;;;;17.05;11.88;;;12.80;99.90;;;12.19;100.00;96158.31;6207246;23;20024;-65
2022/10/14 04:58:31;;;;;;;26.05;14.48;;;12.80;99.90;;;12.07;100.00;96154.81;6206474;23;20373;-66
2022/10/14 05:00:58;;;;;;;18.08;12.38;;;12.90;99.90;;;12.20;100.00;96137.41;6205117;23;20480;-66
2022/10/14 05:03:25;;;;;;;21.77;12.50;;;12.90;99.90;;;12.17;100.00;96131.56;6204654;23;20040;-65
2022/10/14 05:05:52;;;;;;;18.67;12.65;;;12.90;99.90;;;12.23;100.00;96139.75;6206843;23;20025;-66
2022/10/14 05:08:19;;;;;;;20.33;12.60;;;12.90;99.90;;;12.12;100.00;96126.69;6206140;23;20032;-65
2022/10/14 05:10:48;;;;;;;19.50;12.85;;;12.90;99.90;;;12.13;100.00;96102.34;6206839;23;20028;-66
2022/10/14 05:13:15;;;;;;;18.98;12.32;;;12.90;99.90;;;12.12;100.00;96095.50;6206621;23;20024;-66
2022/10/14 05:15:42;;;;;;;17.38;10.30;;;12.80;99.90;;;12.14;100.00;96086.63;6206525;23;20024;-66
2022/10/14 05:18:12;;;;;;;19.38;11.52;;;12.80;99.90;;;12.01;100.00;96095.44;6206357;23;20040;-65
2022/10/14 05:20:39;;;;;;;20.48;10.27;;;12.80;99.90;;;12.01;100.00;96095.44;6206881;23;20512;-65
2022/10/14 05:23:06;;;;;;;17.55;11.82;;;12.80;99.90;;;11.97;100.00;96101.78;6207057;23;20025;-66
2022/10/14 05:25:32;;;;;;;19.90;13.07;;;12.70;99.90;;;11.89;100.00;96103.16;6207537;23;20400;-65
2022/10/14 05:27:59;;;;;;;20.20;12.27;;;12.70;99.90;;;11.82;100.00;96103.69;6207616;23;20029;-65
2022/10/14 05:30:26;;;;;;;18.23;11.60;;;12.80;99.90;;;11.92;100.00;96109.91;6207497;23;20028;-66
2022/10/14 05:33:00;;;;;;;22.73;14.13;;;12.80;99.90;;;11.90;100.00;96110.00;6206585;23;20366;-66
2022/10/14 05:35:27;;;;;;;16.63;12.13;;;12.70;99.90;;;11.98;100.00;96108.66;6204966;23;20399;-66
2022/10/14 05:38:14;;;;;;;15.43;10.85;;;12.70;99.90;;;12.05;100.00;96105.50;6206322;23;20077;-66
2022/10/14 05:40:42;;;;;;;21.95;12.73;;;12.80;99.90;;;11.98;100.00;96113.88;6206237;23;20028;-66
2022/10/14 05:43:09;;;;;;;24.90;11.90;;;12.80;99.90;;;12.02;100.00;96108.34;6206386;23;20024;-65
2022/10/14 05:45:36;;;;;;;20.05;12.45;;;12.80;99.90;;;12.05;100.00;96108.09;6206391;23;20814;-65
2022/10/14 05:48:03;;;;;;;20.98;12.80;;;12.70;99.90;;;11.96;100.00;96102.75;6206227;23;20055;-66
2022/10/14 05:50:30;;;;;;;22.77;12.57;;;12.80;99.90;;;11.92;100.00;96108.13;6206734;23;20028;-66
2022/10/14 05:52:57;;;;;;;18.52;12.30;;;12.80;99.90;;;12.00;100.00;96097.22;6205648;23;20032;-65
2022/10/14 05:55:24;;;;;;;17.20;11.45;;;12.80;99.90;;;12.04;100.00;96098.66;6206971;23;20037;-65
2022/10/14 05:57:55;;;;;;;22.25;12.85;;;12.80;99.90;;;12.06;100.00;96095.91;6207726;23;20112;-65
2022/10/14 06:00:22;;;;;;;17.52;11.77;;;12.80;99.90;;;12.13;100.00;96097.13;6206362;23;20021;-66
2022/10/14 06:02:51;;;;;;;18.02;11.93;;;12.80;99.90;;;12.20;100.00;96089.72;6206247;23;20639;-66
2022/10/14 06:05:18;;;;;;;16.13;12.38;;;12.90;99.90;;;12.18;100.00;96083.78;6207256;23;20051;-66
2022/10/14 06:07:45;;;;;;;15.20;10.30;;;12.90;99.90;;;12.22;100.00;96088.66;6206715;23;20024;-65
2022/10/14 06:10:12;;;;;;;19.55;12.15;;;13.00;99.90;;;12.12;100.00;96100.69;6206261;23;20029;-66
2022/10/14 06:12:39;;;;;;;18.73;11.85;;;13.00;99.90;;;12.27;100.00;96090.94;6206720;23;20024;-65
2022/10/14 06:15:06;;;;;;;17.70;11.98;;;13.00;99.90;;;12.25;100.00;96090.22;6205994;23;20024;-66
2022/10/14 06:17:33;;;;;;;18.20;11.77;;;13.00;99.90;;;12.26;100.00;96089.28;6206682;23;20378;-65
2022/10/14 06:20:00;;;;;;;17.77;11.18;;;13.00;99.90;;;12.24;100.00;96088.56;6205298;23;20563;-67
2022/10/14 06:22:28;;;;;;;13.98;10.65;;;13.10;99.90;;;12.24;100.00;96086.78;6206597;23;20024;-67
2022/10/14 06:24:54;;;;;;;17.05;11.40;;;13.10;99.90;;;12.16;100.00;96094.34;6206155;23;20032;-64
2022/10/14 06:27:27;;;;;;;16.17;10.48;;;13.10;99.90;;;12.27;100.00;96098.72;6205817;23;20024;-65
2022/10/14 06:29:54;;;;;;;18.38;9.73;;;13.10;99.90;;;12.25;100.00;96105.84;6207050;23;20031;-65
2022/10/14 06:32:21;;;;;;;16.55;9.18;;;13.10;99.90;;;12.34;100.00;96106.00;6205914;23;20351;-65
2022/10/14 06:34:48;;;;;;;14.38;9.48;;;13.10;99.90;;;12.44;100.00;96100.13;6205441;23;20522;-65
2022/10/14 06:37:15;;;;;;;14.00;8.75;;;13.20;99.90;;;12.38;100.00;96118.78;6207186;23;20108;-65
2022/10/14 06:39:43;;;;;;;15.77;8.40;;;13.20;99.90;;;12.49;100.00;96124.03;6206107;23;20028;-65
2022/10/14 06:42:10;;;;;;;15.40;8.45;;;13.20;99.90;;;12.47;100.00;96141.50;6206436;23;20090;-65
2022/10/14 06:44:39;;;;;;;16.38;7.90;;;13.20;99.90;;;12.43;100.00;96142.69;6205732;23;20803;-65
2022/10/14 06:47:07;;;;;;;10.70;7.57;;;13.20;99.90;;;12.44;100.00;96139.16;6207470;23;20044;-66
2022/10/14 06:49:34;;;;;;;14.27;8.07;;;13.20;99.90;;;12.47;100.00;96165.75;6204679;23;20051;-65
2022/10/14 06:52:01;;;;;;;14.13;8.65;;;13.30;99.90;;;12.51;100.00;96166.38;6205841;23;20033;-66
2022/10/14 06:54:28;;;;;;;15.40;8.50;;;13.30;99.90;;;12.49;100.00;96166.47;6208891;23;20020;-65
2022/10/14 06:56:55;;;;;;;14.13;8.48;;;13.30;99.90;;;12.56;100.00;96166.88;6208356;23;20021;-65
2022/10/14 06:59:22;;;;;;;15.35;7.78;;;13.30;99.90;;;12.67;100.00;96169.50;6208697;23;20020;-66
2022/10/14 07:01:49;;;;;;;11.43;7.38;;;13.40;99.90;;;12.64;100.00;96172.34;6208313;23;20031;-65
2022/10/14 07:04:16;;;;;;;12.85;7.90;;;13.40;99.90;;;12.70;100.00;96171.06;6209051;23;20027;-66
2022/10/14 07:06:42;;;;;;;13.52;7.53;;;13.40;99.90;;;12.77;100.00;96173.13;6208859;23;20031;-66
2022/10/14 07:09:09;;;;;;;13.07;7.80;;;13.50;99.90;;;12.88;100.00;96171.47;6207855;23;20029;-65
2022/10/14 07:11:36;;;;;;;14.57;7.20;;;13.60;99.90;;;12.89;100.00;96183.56;6209177;23;20020;-65
2022/10/14 07:14:03;;;;;;;14.65;7.35;;;13.60;99.90;;;12.81;100.00;96185.91;6208024;23;20036;-66
2022/10/14 07:16:30;;;;;;;11.18;7.25;;;13.70;99.90;;;12.85;100.00;96190.78;6218162;23;20095;-66
2022/10/14 07:18:57;;;;;;;12.68;7.55;;;13.70;99.90;;;12.76;100.00;96197.47;6208223;23;20310;-66
2022/10/14 07:21:24;;;;;;;11.45;7.47;;;13.70;99.90;;;12.80;100.00;96210.28;6207969;23;20040;-65
2022/10/14 07:23:51;;;;;;;12.55;7.80;;;13.70;99.90;;;12.77;100.00;96217.38;6208065;23;20029;-65
2022/10/14 07:26:18;;;;;;;14.30;7.70;;;13.70;99.90;;;12.92;100.00;96222.41;6206957;23;20211;-65
2022/10/14 07:28:45;;;;;;;15.68;7.80;;;13.70;99.90;;;12.80;100.00;96237.16;6208795;23;20028;-66
2022/10/14 07:31:12;;;;;;;11.65;7.60;;;13.70;99.90;;;12.69;100.00;96255.31;6206332;23;20028;-65
2022/10/14 07:33:40;;;;;;;12.00;7.10;;;13.80;99.90;;;12.80;100.00;96252.78;6207479;23;20021;-66
2022/10/14 07:36:13;;;;;;;12.02;7.75;;;13.70;99.90;;;12.84;100.00;96262.03;6204088;23;20055;-66
2022/10/14 07:38:47;;;;;;;14.23;8.13;;;13.70;99.90;;;12.61;100.00;96274.06;6204477;23;20047;-66
2022/10/14 07:41:21;;;;;;;13.52;7.25;;;13.70;99.90;;;12.83;100.00;96270.78;6206332;23;20736;-66
2022/10/14 07:43:52;;;;;;;11.50;6.97;;;13.70;99.90;;;12.94;100.00;96281.25;6206409;23;20028;-65
2022/10/14 07:46:28;;;;;;;11.85;7.10;;;13.80;99.90;;;13.07;100.00;96281.19;6205882;23;20032;-66
2022/10/14 07:48:56;;;;;;;15.45;7.00;;;13.90;99.90;;;13.01;100.00;96291.22;6205578;23;20336;-65
2022/10/14 07:51:25;;;;;;;10.52;5.70;;;13.90;99.90;;;13.22;100.00;96289.63;6206129;23;20028;-66
2022/10/14 07:53:54;;;;;;;10.88;5.85;;;14.10;99.90;;;13.19;100.00;96282.06;6204633;23;20017;-66
2022/10/14 07:56:21;;;;;;;11.38;6.40;;;14.10;99.90;;;13.01;100.00;96304.25;6231026;23;20032;-65
2022/10/14 07:58:49;;;;;;;12.20;6.47;;;14.10;99.90;;;13.03;100.00;96297.97;6207526;23;20025;-65
2022/10/14 08:01:17;;;;;;;11.18;6.90;;;13.90;99.90;;;12.93;100.00;96317.81;6205722;23;20488;-65
2022/10/14 08:03:46;;;;;;;13.13;6.55;;;13.90;99.90;;;12.97;100.00;96322.69;6206267;23;20024;-64
2022/10/14 08:06:14;;;;;;;9.40;6.63;;;13.90;99.90;;;12.97;100.00;96321.84;6206799;23;20637;-65
2022/10/14 08:08:42;;;;;;;11.88;7.32;;;14.00;99.90;;;12.92;100.00;96326.56;6203667;23;20072;-66
2022/10/14 08:11:16;;;;;;;11.48;6.82;;;14.00;99.90;;;13.01;100.00;96323.31;6204836;23;20024;-65
2022/10/14 08:13:45;;;;;;;12.43;6.72;;;14.10;99.90;;;12.92;100.00;96322.19;6204915;23;20020;-65
2022/10/14 08:16:28;;;;;;;14.20;6.78;;;14.10;99.90;;;13.11;100.00;96320.84;6203826;23;20159;-65
2022/10/14 08:18:58;;;;;;;10.75;6.63;;;14.00;99.90;;;13.11;100.00;96329.53;6205524;23;20032;-65
2022/10/14 08:21:25;;;;;;;14.10;6.13;;;14.10;99.90;;;13.03;100.00;96334.44;6203350;23;20341;-65
2022/10/14 08:23:53;;;;;;;9.05;5.65;;;14.10;99.90;;;13.28;100.00;96333.53;6206511;23;20035;-65
2022/10/14 08:26:29;;;;;;;9.60;5.45;;;14.10;99.90;;;13.17;100.00;96331.66;6205100;23;20076;-66
2022/10/14 08:29:02;;;;;;;10.50;5.40;;;14.20;99.90;;;13.17;100.00;96343.88;6206371;23;20029;-68
2022/10/14 08:31:30;;;;;;;8.20;5.90;;;14.10;99.90;;;13.17;100.00;96338.66;6204990;23;20694;-67
2022/10/14 08:33:57;;;;;;;10.68;6.45;;;14.00;99.90;;;13.19;100.00;96347.19;6203456;23;20024;-68
2022/10/14 08:36:24;;;;;;;10.50;5.75;;;14.00;99.90;;;12.88;100.00;96349.38;6205346;23;20496;-68
2022/10/14 08:38:53;;;;;;;10.38;5.93;;;13.90;99.90;;;12.73;100.00;96348.72;6204018;23;20074;-69
2022/10/14 08:41:34;;;;;;;11.15;6.03;;;13.70;99.90;;;12.84;100.00;96344.50;6204237;23;20020;-68
2022/10/14 08:44:10;;;;;;;12.93;7.88;;;13.60;99.90;;;12.87;100.00;96347.75;6205840;23;20342;-68
2022/10/14 08:46:43;;;;;;;16.08;8.32;;;13.60;99.90;;;12.94;100.00;96340.31;6203100;23;20484;-69
2022/10/14 08:49:46;;;;;;;11.13;6.90;;;13.60;99.90;;;12.98;100.00;96333.94;6203289;23;20029;-69
2022/10/14 08:52:25;;;;;;;9.07;6.20;;;13.60;99.90;;;12.88;100.00;96338.97;6202144;23;20031;-68
2022/10/14 08:54:59;;;;;;;10.75;6.97;;;13.70;99.90;;;12.86;100.00;96332.22;6204124;23;20020;-68
2022/10/14 08:57:32;;;;;;;8.07;5.15;;;13.70;99.90;;;12.69;100.00;96342.06;6202339;23;20032;-68
2022/10/14 08:59:59;;;;;;;;;;;13.60;99.90;;;12.86;100.00;96327.00;6213823;23;20020;-68
2022/10/14 09:02:36;;;;;;;9.75;6.18;;;13.60;99.90;;;12.82;100.00;96333.38;6228115;23;20363;-68
2022/10/14 09:05:04;;;;;;;7.78;5.10;;;13.60;99.90;;;12.86;100.00;96325.22;6205641;23;20031;-68
2022/10/14 09:07:33;;;;;;;11.55;5.80;;;13.60;99.90;;;12.90;100.00;96320.63;6205798;23;20023;-68
2022/10/14 09:10:06;;;;;;;9.77;4.65;;;13.60;99.90;;;13.01;100.00;96305.06;6203790;23;20028;-68
2022/10/14 09:12:34;;;;;;;11.27;6.03;;;13.70;99.90;;;13.04;100.00;96309.22;6204709;23;20090;-68
2022/10/14 09:15:14;;;;;;;12.35;6.20;;;13.70;99.90;;;13.06;100.00;96304.75;6205110;23;20021;-68
2022/10/14 09:18:04;;;;;;;9.30;6.07;;;13.80;99.90;;;13.12;100.00;96297.31;6204526;23;20024;-68
2022/10/14 09:20:32;;;;;;;9.77;5.78;;;13.90;99.90;;;13.08;100.00;96300.25;6203859;23;20107;-68
2022/10/14 09:23:14;;;;;;;10.73;5.22;;;13.90;99.90;;;13.01;100.00;96302.47;6206088;23;20119;-68
2022/10/14 09:25:56;;;;;;;9.90;5.78;;;14.00;99.90;;;13.17;100.00;96291.75;6202410;23;20025;-69
2022/10/14 09:28:41;;;;;;;9.35;5.45;;;14.00;99.90;;;13.06;100.00;96289.94;6206610;23;20028;-68
2022/10/14 09:31:12;;;;;;;8.52;5.57;;;14.00;99.90;;;13.12;100.00;96278.25;6203709;23;20114;-67
2022/10/14 09:33:41;;;;;;;8.95;6.20;;;14.00;99.90;;;13.04;100.00;96283.19;6205748;23;20020;-68
2022/10/14 09:36:20;;;;;;;10.15;5.55;;;14.10;99.90;;;13.13;100.00;96274.69;6204668;23;20032;-68
2022/10/14 09:38:51;;;;;;;12.10;5.60;;;14.10;99.90;;;13.21;100.00;96272.34;6203578;23;20055;-68
2022/10/14 09:41:27;;;;;;;11.43;6.07;;;14.10;99.90;;;13.43;100.00;96258.56;6203113;23;20020;-67
2022/10/14 09:44:20;;;;;;;15.10;6.30;;;14.10;99.90;;;13.18;100.00;96264.75;6204736;23;20024;-67
2022/10/14 09:46:52;;;;;;;8.15;4.60;;;14.10;99.90;;;13.37;100.00;96259.03;6204364;23;20099;-68
2022/10/14 09:49:41;;;;;;;10.38;6.10;;;14.10;99.90;;;13.36;100.00;96242.59;6204958;23;20652;-68
2022/10/14 09:52:24;;;;;;;8.43;5.90;;;14.20;99.90;;;12.97;100.00;96274.97;6203050;23;20437;-68
2022/10/14 09:55:00;;;;;;;10.07;5.60;;;14.10;99.90;;;13.01;100.00;96260.78;6202056;23;20020;-67
2022/10/14 09:57:27;;;;;;;9.48;4.97;;;14.10;99.90;;;13.05;100.00;96251.00;6206251;23;20056;-67
2022/10/14 10:00:02;;;;;;;8.75;5.38;;;14.00;99.90;;;13.12;100.00;96237.38;6202956;23;20028;-67
2022/10/14 10:02:40;;;;;;;9.00;4.93;;;13.90;99.90;;;12.97;100.00;96244.53;6227088;23;20087;-68
2022/10/14 10:05:28;;;;;;;8.88;4.85;;;14.00;99.90;;;13.26;100.00;96225.09;6202798;23;20028;-68
2022/10/14 10:08:13;;;;;;;8.70;4.53;;;14.10;99.90;;;13.35;100.00;96212.25;6201969;23;20336;-67
2022/10/14 10:10:40;;;;;;;12.65;5.28;;;14.10;99.90;;;13.17;100.00;96219.63;6205424;23;20528;-68
2022/10/14 10:13:22;;;;;;;8.23;4.78;;;14.10;99.90;;;13.27;100.00;96213.72;6205761;23;20043;-68
2022/10/14 10:16:03;;;;;;;11.30;4.65;;;14.10;99.90;;;13.14;100.00;96224.25;6201081;23;20045;-68
2022/10/14 10:18:30;;;;;;;6.88;4.18;;;14.10;99.90;;;13.17;100.00;96208.38;6201766;23;20103;-68
2022/10/14 10:21:19;;;;;;;7.15;4.70;;;14.00;99.90;;;13.37;100.00;96191.28;6203839;23;20021;-67